Portada
METAR-TAF:

METAR-TAF

Aeropuertos :

Tiaret, Argelia

latitud: 35-15N, longitud: 001-26E, altitud: 1127 m

Observación

El informe se hizo hace 1 hora y 9 minutos, a las 07:00 UTC
Viento calma
Temperatura 3°C
Humedad 93%
Presión 1025 hPa
Visibilidad 10 km o más
Escasas nubes a una altura de 2600 ft

METAR: DAOB 280700Z 00000KT 9999 FEW026 03/02 Q1025

Hora: 09:09 (08:09 UTC)

Pronóstico

El informe se hizo hace 3 horas y 9 minutos, a las 05:00 UTC
Pronóstico válido del 28 a las 06 UTC al 29 a las 06 UTC
Viento 2 kt con dirección variable
Visibilidad 10 km o más
Escasas nubes a una altura de 2300 ft
Evolucionando progresivamente
del 28 a las 10 UTC al 28 a las 13 UTC
Viento 12 kt del norte-noroeste
Evolucionando progresivamente
del 28 a las 22 UTC al 29 a las 02 UTC
Viento 2 kt con dirección variable

TAF: DAOB 280500Z 2806/2906 VRB02KT 9999 FEW023 BECMG 2810/2813 33012KT BECMG 2822/2902 VRB02KT

Observaciones y pronósticos meteorológicos de más de 4000 aeropuertos (mensajes METAR y TAF).

Los puntos amarillos y rojos representan las estaciones disponibles.

Ponga el ratón en el punto deseado para ver el nombre de la estación.

Haga clic para ver las observaciones y los pronósticos meteorológicos.

Para cambiar el mapa : haga clic en los botones verdes con una cruz de color negro para hacer un zoom, en el botón verde con un guión para alejar o en las flechas verdes para mapas adyacentes.


METAR-TAF: